Time;durP1;ratioP1;P1;durP2;ratioP2;P2;SDS_P1;SDS_P2;PMS_P1;PMS_P2;Temp;Humidity;BMP_temperature;BMP_pressure;BME280_temperature;BME280_humidity;BME280_pressure;Samples;Min_cycle;Max_cycle;Signal;HPM_P1;HPM_P2
2024/03/20 00:00:55;;;;;;;22.33;9.00;;;;;;;10.28;100.00;101861.59;5275463;28;20038;-74
2024/03/20 00:03:27;;;;;;;23.13;8.73;;;;;;;10.30;100.00;101872.19;5269047;28;20393;-73
2024/03/20 00:05:57;;;;;;;24.52;8.73;;;;;;;10.32;100.00;101871.06;5275237;28;20084;-74
2024/03/20 00:08:28;;;;;;;22.90;8.73;;;;;;;10.36;100.00;101872.47;5272022;28;20028;-74
2024/03/20 00:10:58;;;;;;;21.98;8.50;;;;;;;10.37;100.00;101873.31;5273538;28;20039;-74
2024/03/20 00:13:29;;;;;;;20.98;7.10;;;;;;;10.31;100.00;101866.69;5270471;28;20043;-74
2024/03/20 00:15:59;;;;;;;16.75;7.35;;;;;;;10.28;100.00;101864.28;5274056;28;20028;-74
2024/03/20 00:18:30;;;;;;;24.35;8.15;;;;;;;10.31;100.00;101869.38;5272424;28;20028;-74
2024/03/20 00:21:00;;;;;;;21.35;8.95;;;;;;;10.28;100.00;101869.63;5271301;28;20023;-74
2024/03/20 00:23:31;;;;;;;16.65;9.13;;;;;;;10.30;100.00;101866.84;5271455;28;20576;-74
2024/03/20 00:26:02;;;;;;;19.40;9.20;;;;;;;10.25;100.00;101869.09;5271777;28;20452;-74
2024/03/20 00:28:33;;;;;;;23.33;9.98;;;;;;;10.27;100.00;101876.00;5271633;28;20059;-74
2024/03/20 00:31:03;;;;;;;20.95;8.60;;;;;;;10.26;100.00;101868.94;5274127;28;20458;-74
2024/03/20 00:33:34;;;;;;;18.83;8.00;;;;;;;10.20;100.00;101869.47;5268313;28;20028;-74
2024/03/20 00:36:04;;;;;;;18.15;8.85;;;;;;;10.15;100.00;101873.56;5277806;28;20031;-74
2024/03/20 00:38:35;;;;;;;22.38;9.05;;;;;;;10.08;100.00;101866.03;5271125;28;20070;-75
2024/03/20 00:41:05;;;;;;;22.83;8.55;;;;;;;10.01;100.00;101870.28;5262754;28;20034;-74
2024/03/20 00:43:36;;;;;;;16.08;8.20;;;;;;;9.96;100.00;101869.00;5269180;28;20032;-75
2024/03/20 00:46:07;;;;;;;21.27;9.07;;;;;;;10.05;100.00;101871.69;5267185;28;20020;-74
2024/03/20 00:48:37;;;;;;;21.73;9.02;;;;;;;9.86;100.00;101866.28;5264014;28;20496;-74
2024/03/20 00:51:07;;;;;;;19.35;8.52;;;;;;;9.81;100.00;101860.50;5272493;28;20032;-74
2024/03/20 00:53:38;;;;;;;23.23;9.43;;;;;;;9.84;100.00;101866.44;5272873;28;20085;-76
2024/03/20 00:56:08;;;;;;;20.30;10.10;;;;;;;9.75;100.00;101861.88;5274285;27;20046;-75
2024/03/20 00:58:39;;;;;;;25.73;10.82;;;;;;;9.72;100.00;101867.50;5270564;28;20026;-75
2024/03/20 01:01:09;;;;;;;25.83;10.18;;;;;;;9.69;100.00;101864.25;5270183;28;20023;-74
2024/03/20 01:03:41;;;;;;;20.38;10.00;;;;;;;9.63;100.00;101860.28;5269077;28;20042;-74
2024/03/20 01:06:12;;;;;;;20.67;9.73;;;;;;;9.57;100.00;101866.19;5272677;28;20050;-75
2024/03/20 01:08:43;;;;;;;20.15;9.15;;;;;;;9.47;100.00;101858.09;5272076;28;20020;-74
2024/03/20 01:11:13;;;;;;;18.65;8.73;;;;;;;9.38;100.00;101864.25;5273923;28;20100;-74
2024/03/20 01:13:44;;;;;;;19.67;8.52;;;;;;;9.30;100.00;101859.59;5271471;28;20024;-74
2024/03/20 01:16:14;;;;;;;23.85;9.57;;;;;;;9.24;100.00;101862.81;5273275;28;20022;-74
2024/03/20 01:18:45;;;;;;;19.83;8.73;;;;;;;9.29;100.00;101865.94;5271706;28;20069;-75
2024/03/20 01:21:15;;;;;;;21.92;9.65;;;;;;;9.32;100.00;101854.09;5270802;28;20023;-74
2024/03/20 01:23:46;;;;;;;29.10;10.80;;;;;;;9.34;100.00;101852.13;5270138;28;20098;-74
2024/03/20 01:26:17;;;;;;;31.00;10.38;;;;;;;9.36;100.00;101850.16;5273441;28;20023;-74
2024/03/20 01:28:49;;;;;;;21.75;10.57;;;;;;;9.39;100.00;101849.91;5269054;28;20107;-75
2024/03/20 01:31:19;;;;;;;30.90;12.20;;;;;;;9.43;100.00;101840.59;5271492;28;20019;-75
2024/03/20 01:33:49;;;;;;;20.30;10.15;;;;;;;9.46;100.00;101832.31;5270019;28;20026;-74
2024/03/20 01:36:20;;;;;;;27.13;11.15;;;;;;;9.44;100.00;101831.59;5270804;28;20027;-74
2024/03/20 01:38:51;;;;;;;21.95;8.82;;;;;;;9.44;100.00;101825.38;5271818;28;20372;-75
2024/03/20 01:41:21;;;;;;;26.65;9.45;;;;;;;9.42;100.00;101825.53;5268628;28;20020;-75
2024/03/20 01:43:54;;;;;;;27.73;10.43;;;;;;;9.38;100.00;101821.41;5272553;28;20020;-75
2024/03/20 01:46:32;;;;;;;21.15;8.82;;;;;;;9.35;100.00;101824.38;5270910;28;20085;-74
2024/03/20 01:49:04;;;;;;;20.25;9.57;;;;;;;9.30;100.00;101827.44;5272050;28;20038;-74
2024/03/20 01:51:37;;;;;;;10.25;6.25;;;;;;;9.23;100.00;101822.75;5266146;28;20019;-74
2024/03/20 01:54:08;;;;;;;17.23;5.82;;;;;;;9.17;100.00;101818.78;5271527;28;20031;-74
2024/03/20 01:56:39;;;;;;;19.70;8.27;;;;;;;9.11;100.00;101816.66;5270472;28;20032;-74
2024/03/20 01:59:10;;;;;;;14.48;6.85;;;;;;;9.07;100.00;101812.53;5275257;28;20419;-75
2024/03/20 02:01:41;;;;;;;17.75;8.52;;;;;;;9.07;100.00;101810.69;5269717;28;20032;-74
2024/03/20 02:04:11;;;;;;;19.48;8.90;;;;;;;9.07;100.00;101808.03;5269851;28;20054;-74
2024/03/20 02:06:42;;;;;;;23.70;10.55;;;;;;;9.18;100.00;101808.91;5272091;28;20027;-74
2024/03/20 02:09:12;;;;;;;17.95;8.77;;;;;;;9.17;100.00;101799.19;5271541;28;20404;-74
2024/03/20 02:11:43;;;;;;;17.05;8.23;;;;;;;9.23;100.00;101801.31;5269265;28;20028;-74
2024/03/20 02:14:13;;;;;;;22.58;9.32;;;;;;;9.24;100.00;101809.25;5273497;28;20396;-74
2024/03/20 02:16:44;;;;;;;28.65;10.30;;;;;;;9.29;100.00;101807.00;5269547;28;20049;-74
2024/03/20 02:19:15;;;;;;;19.65;10.50;;;;;;;9.37;100.00;101808.16;5272770;28;20027;-74
2024/03/20 02:21:45;;;;;;;27.73;10.77;;;;;;;9.34;100.00;101804.78;5269242;28;20050;-74
2024/03/20 02:24:36;;;;;;;24.88;10.05;;;;;;;9.39;100.00;101804.38;5268831;28;20136;-75
2024/03/20 02:27:07;;;;;;;21.45;10.32;;;;;;;9.28;100.00;101799.94;5275266;28;20045;-74
2024/03/20 02:29:57;;;;;;;32.33;10.40;;;;;;;9.24;100.00;101795.88;5271467;28;20489;-74
2024/03/20 02:32:46;;;;;;;25.40;9.40;;;;;;;9.31;100.00;101799.69;5267363;28;20024;-75
2024/03/20 02:35:17;;;;;;;25.15;9.20;;;;;;;9.31;100.00;101804.19;5270421;28;20023;-74
2024/03/20 02:37:47;;;;;;;25.25;9.48;;;;;;;9.30;100.00;101799.81;5272523;28;20047;-74
2024/03/20 02:40:18;;;;;;;26.80;11.27;;;;;;;9.29;100.00;101798.97;5272132;28;20020;-74
2024/03/20 02:42:49;;;;;;;24.77;10.02;;;;;;;9.28;100.00;101805.28;5268106;28;20083;-74
2024/03/20 02:45:19;;;;;;;16.92;8.88;;;;;;;9.27;100.00;101808.13;5271509;28;20030;-74
2024/03/20 02:47:50;;;;;;;30.95;9.50;;;;;;;9.29;100.00;101809.69;5271365;28;20032;-74
2024/03/20 02:50:20;;;;;;;26.20;11.02;;;;;;;9.28;100.00;101799.09;5274490;27;20024;-74
2024/03/20 02:52:50;;;;;;;19.58;9.65;;;;;;;9.25;100.00;101810.09;5275313;28;20024;-74
2024/03/20 02:55:21;;;;;;;17.80;9.35;;;;;;;9.21;100.00;101803.31;5275656;28;20039;-74
2024/03/20 02:57:52;;;;;;;23.65;10.15;;;;;;;9.18;100.00;101803.56;5278764;28;20040;-74
2024/03/20 03:00:23;;;;;;;28.60;10.40;;;;;;;9.12;100.00;101806.78;5273857;28;20050;-75
2024/03/20 03:02:54;;;;;;;20.05;8.38;;;;;;;9.15;100.00;101796.66;5272296;28;20485;-74
2024/03/20 03:05:40;;;;;;;26.02;9.38;;;;;;;9.15;100.00;101809.19;5273726;28;20035;-74
2024/03/20 03:08:11;;;;;;;18.90;8.60;;;;;;;9.11;100.00;101802.41;5276115;28;20798;-74
2024/03/20 03:10:42;;;;;;;24.70;9.02;;;;;;;9.08;100.00;101807.03;5273743;28;20036;-74
2024/03/20 03:13:13;;;;;;;32.63;9.45;;;;;;;9.08;100.00;101809.72;5276907;28;20081;-74
2024/03/20 03:15:43;;;;;;;22.80;10.32;;;;;;;9.07;100.00;101808.03;5273830;28;20027;-75
2024/03/20 03:18:14;;;;;;;17.38;8.35;;;;;;;9.07;100.00;101802.66;5276681;27;20064;-74
2024/03/20 03:20:45;;;;;;;25.10;10.48;;;;;;;9.06;100.00;101811.69;5272824;28;20095;-74
2024/03/20 03:23:16;;;;;;;22.83;9.82;;;;;;;9.04;100.00;101802.09;5274548;28;20047;-74
2024/03/20 03:25:47;;;;;;;25.52;9.95;;;;;;;8.99;100.00;101810.53;5275853;28;20031;-74
2024/03/20 03:28:18;;;;;;;25.75;9.35;;;;;;;8.95;100.00;101801.06;5273540;28;20473;-74
2024/03/20 03:30:49;;;;;;;19.23;9.20;;;;;;;8.91;100.00;101802.31;5275890;28;20027;-75
2024/03/20 03:33:20;;;;;;;19.23;8.77;;;;;;;8.86;100.00;101799.19;5270137;28;20030;-74
2024/03/20 03:35:50;;;;;;;22.90;8.77;;;;;;;8.83;100.00;101796.75;5275074;28;20077;-74
2024/03/20 03:38:21;;;;;;;29.02;10.30;;;;;;;8.79;100.00;101808.72;5273844;28;20461;-74
2024/03/20 03:41:00;;;;;;;27.27;10.30;;;;;;;8.79;100.00;101804.22;5272834;28;20036;-74
2024/03/20 03:43:30;;;;;;;23.40;10.63;;;;;;;8.76;100.00;101804.47;5268202;28;20044;-74
2024/03/20 03:46:01;;;;;;;20.85;9.88;;;;;;;8.77;100.00;101810.66;5273929;28;20054;-74
2024/03/20 03:48:32;;;;;;;21.83;10.63;;;;;;;8.77;100.00;101794.59;5273796;28;20064;-74
2024/03/20 03:51:03;;;;;;;26.60;10.60;;;;;;;8.76;100.00;101798.28;5274637;28;20027;-74
2024/03/20 03:53:34;;;;;;;21.90;8.60;;;;;;;8.76;100.00;101798.28;5272461;28;20028;-74
2024/03/20 03:56:05;;;;;;;21.83;10.30;;;;;;;8.76;100.00;101806.31;5273141;28;20026;-74
2024/03/20 03:58:35;;;;;;;28.08;10.85;;;;;;;8.74;100.00;101802.91;5272782;28;20085;-75
2024/03/20 04:01:08;;;;;;;23.17;8.43;;;;;;;8.70;100.00;101798.81;5276595;28;20019;-75
2024/03/20 04:03:38;;;;;;;28.70;9.73;;;;;;;8.71;100.00;101803.16;5269686;28;20020;-74
2024/03/20 04:06:09;;;;;;;26.00;12.65;;;;;;;8.68;100.00;101800.75;5265869;28;20030;-74
2024/03/20 04:08:39;;;;;;;27.20;12.30;;;;;;;8.67;100.00;101804.41;5269565;28;20028;-74
2024/03/20 04:11:10;;;;;;;26.38;11.82;;;;;;;8.66;100.00;101808.06;5274700;28;20019;-75
2024/03/20 04:13:40;;;;;;;28.17;14.50;;;;;;;8.66;100.00;101802.72;5274056;28;20073;-74
2024/03/20 04:16:11;;;;;;;27.92;13.27;;;;;;;8.66;100.00;101803.56;5271045;28;20473;-74
2024/03/20 04:18:41;;;;;;;38.33;13.68;;;;;;;8.64;100.00;101802.84;5272730;28;20028;-74
2024/03/20 04:21:12;;;;;;;37.97;13.65;;;;;;;8.60;100.00;101795.22;5271377;28;20034;-74
2024/03/20 04:23:43;;;;;;;31.35;13.35;;;;;;;8.59;100.00;101796.19;5272145;28;20080;-74
2024/03/20 04:26:13;;;;;;;36.20;12.93;;;;;;;8.55;100.00;101791.09;5275825;28;20060;-74
2024/03/20 04:28:46;;;;;;;31.48;12.57;;;;;;;8.50;100.00;101800.50;5270094;28;20024;-74
2024/03/20 04:31:16;;;;;;;37.78;13.65;;;;;;;8.48;100.00;101799.75;5273311;28;20027;-74
2024/03/20 04:33:47;;;;;;;28.38;11.63;;;;;;;8.46;100.00;101802.56;5270078;28;20035;-74
2024/03/20 04:36:17;;;;;;;27.40;11.57;;;;;;;8.46;100.00;101793.69;5273191;28;20035;-74
2024/03/20 04:38:48;;;;;;;31.65;11.52;;;;;;;8.43;100.00;101799.28;5272518;28;20034;-74
2024/03/20 04:41:22;;;;;;;38.65;12.38;;;;;;;8.42;100.00;101794.94;5270972;28;20059;-74
2024/03/20 04:43:52;;;;;;;28.50;11.60;;;;;;;8.35;100.00;101799.91;5273506;28;20035;-74
2024/03/20 04:46:23;;;;;;;29.05;12.10;;;;;;;8.32;100.00;101797.50;5268426;28;20031;-74
2024/03/20 04:48:54;;;;;;;32.65;12.45;;;;;;;8.29;100.00;101801.28;5273002;28;20028;-74
2024/03/20 04:51:24;;;;;;;26.95;13.77;;;;;;;8.29;100.00;101803.13;5270648;28;20031;-74
2024/03/20 04:53:55;;;;;;;34.40;13.18;;;;;;;8.30;100.00;101802.97;5271323;28;20020;-74
2024/03/20 04:56:25;;;;;;;26.15;12.05;;;;;;;8.26;100.00;101800.69;5269925;28;20550;-74
2024/03/20 04:58:56;;;;;;;29.20;12.70;;;;;;;8.21;100.00;101801.06;5269856;28;20019;-74
2024/03/20 05:01:26;;;;;;;22.70;11.85;;;;;;;8.18;100.00;101809.34;5264722;28;20206;-74
2024/03/20 05:03:57;;;;;;;33.05;13.57;;;;;;;8.17;100.00;101806.78;5269324;28;20080;-74
2024/03/20 05:06:27;;;;;;;24.73;13.00;;;;;;;8.16;100.00;101805.94;5265352;28;20024;-74
2024/03/20 05:08:58;;;;;;;27.83;12.10;;;;;;;8.15;100.00;101801.59;5265773;28;20617;-74
2024/03/20 05:11:29;;;;;;;25.42;11.48;;;;;;;8.12;100.00;101803.66;5263777;28;20050;-74
2024/03/20 05:14:00;;;;;;;25.63;12.07;;;;;;;8.09;100.00;101802.09;5265822;28;20473;-74
2024/03/20 05:16:31;;;;;;;25.13;11.88;;;;;;;8.03;100.00;101806.13;5266169;28;20389;-74
2024/03/20 05:19:02;;;;;;;21.70;10.63;;;;;;;8.00;100.00;101811.72;5273773;28;20026;-74
2024/03/20 05:21:32;;;;;;;19.65;10.35;;;;;;;7.94;100.00;101801.53;5267291;28;20036;-74
2024/03/20 05:24:03;;;;;;;27.42;11.35;;;;;;;7.88;100.00;101802.03;5267124;28;20080;-74
2024/03/20 05:26:33;;;;;;;27.40;13.35;;;;;;;7.81;100.00;101805.31;5271379;28;20036;-74
2024/03/20 05:29:04;;;;;;;26.98;13.10;;;;;;;7.76;100.00;101803.88;5264085;28;20020;-74
2024/03/20 05:31:34;;;;;;;24.63;12.32;;;;;;;7.75;100.00;101806.69;5266517;28;20543;-74
2024/03/20 05:34:05;;;;;;;22.77;11.82;;;;;;;7.78;100.00;101807.28;5267795;28;20016;-75
2024/03/20 05:36:36;;;;;;;25.95;11.05;;;;;;;7.81;100.00;101803.50;5270147;28;20020;-74
2024/03/20 05:39:08;;;;;;;21.77;10.43;;;;;;;7.85;100.00;101807.63;5267046;28;20019;-74
2024/03/20 05:41:39;;;;;;;16.15;8.57;;;;;;;7.87;100.00;101808.34;5267808;28;20465;-75
2024/03/20 05:44:10;;;;;;;17.25;9.18;;;;;;;7.89;100.00;101809.09;5267262;28;20055;-74
2024/03/20 05:46:40;;;;;;;23.45;10.10;;;;;;;7.88;100.00;101803.84;5268516;28;20048;-74
2024/03/20 05:49:11;;;;;;;21.77;10.00;;;;;;;7.85;100.00;101802.28;5267023;28;20117;-74
2024/03/20 05:51:41;;;;;;;22.48;10.52;;;;;;;7.89;100.00;101806.41;5263450;28;20063;-74
2024/03/20 05:54:12;;;;;;;25.50;11.20;;;;;;;7.92;100.00;101800.78;5261587;28;20036;-75
2024/03/20 05:56:43;;;;;;;23.58;10.85;;;;;;;7.98;100.00;101807.44;5266061;28;20448;-74
2024/03/20 05:59:13;;;;;;;28.42;10.85;;;;;;;7.99;100.00;101803.84;5261415;28;20031;-74
2024/03/20 06:01:44;;;;;;;27.02;12.90;;;;;;;8.00;100.00;101801.03;5266845;28;20031;-75
2024/03/20 06:04:14;;;;;;;26.65;12.95;;;;;;;8.03;100.00;101808.81;5270891;28;20465;-74
2024/03/20 06:06:45;;;;;;;31.13;13.07;;;;;;;8.05;100.00;101804.16;5270771;28;20019;-75
2024/03/20 06:09:18;;;;;;;28.00;12.57;;;;;;;8.09;100.00;101811.94;5261777;28;20024;-74
2024/03/20 06:11:48;;;;;;;29.27;13.82;;;;;;;8.13;100.00;101816.03;5270027;28;20056;-74
2024/03/20 06:14:19;;;;;;;31.60;13.48;;;;;;;8.16;100.00;101808.63;5266216;28;20508;-75
2024/03/20 06:16:49;;;;;;;28.73;14.82;;;;;;;8.26;100.00;101814.91;5266041;28;20035;-74
2024/03/20 06:19:20;;;;;;;30.55;14.63;;;;;;;8.34;100.00;101819.63;5269006;28;20486;-74
2024/03/20 06:21:50;;;;;;;25.15;13.88;;;;;;;8.41;100.00;101828.84;5267105;28;20031;-74
2024/03/20 06:24:20;;;;;;;31.05;14.70;;;;;;;8.49;100.00;101826.41;5270913;28;20024;-74
2024/03/20 06:26:51;;;;;;;25.83;12.88;;;;;;;8.55;100.00;101827.69;5269385;28;20405;-74
2024/03/20 06:29:22;;;;;;;25.48;12.88;;;;;;;8.65;100.00;101833.13;5269049;28;20032;-74
2024/03/20 06:31:54;;;;;;;29.58;13.38;;;;;;;8.74;100.00;101835.88;5270935;28;20478;-74
2024/03/20 06:34:25;;;;;;;28.25;15.18;;;;;;;8.82;100.00;101835.19;5274250;28;20428;-74
2024/03/20 06:36:55;;;;;;;27.42;15.15;;;;;;;8.97;100.00;101835.72;5275248;28;20032;-74
2024/03/20 06:39:27;;;;;;;29.27;13.35;;;;;;;9.10;100.00;101843.56;5272057;28;20023;-74
2024/03/20 06:41:57;;;;;;;30.83;14.90;;;;;;;9.16;100.00;101848.38;5267545;28;20028;-74
2024/03/20 06:44:28;;;;;;;26.67;14.82;;;;;;;9.22;100.00;101840.66;5273812;28;20392;-74
2024/03/20 06:46:58;;;;;;;32.17;14.95;;;;;;;9.39;100.00;101838.31;5269537;28;20039;-74
2024/03/20 06:49:33;;;;;;;27.05;14.70;;;;;;;9.55;100.00;101841.38;5268548;28;20028;-74
2024/03/20 06:52:04;;;;;;;23.05;12.85;;;;;;;9.72;100.00;101839.88;5276695;28;20028;-74
2024/03/20 06:54:34;;;;;;;28.58;14.90;;;;;;;9.86;100.00;101847.53;5271083;28;20027;-74
2024/03/20 06:57:06;;;;;;;33.33;15.32;;;;;;;10.08;100.00;101847.28;5275295;28;20028;-75
2024/03/20 06:59:37;;;;;;;27.42;12.95;;;;;;;10.33;100.00;101845.06;5274051;28;20451;-75
2024/03/20 07:02:08;;;;;;;32.10;14.93;;;;;;;10.46;100.00;101847.50;5270884;28;20434;-74
2024/03/20 07:04:39;;;;;;;31.35;15.20;;;;;;;10.64;100.00;101851.16;5271780;28;20107;-75
2024/03/20 07:07:11;;;;;;;28.10;13.55;;;;;;;10.79;100.00;101856.94;5274130;27;20020;-75
2024/03/20 07:09:42;;;;;;;39.38;17.08;;;;;;;10.96;100.00;101858.06;5268584;28;20024;-74
2024/03/20 07:12:14;;;;;;;38.42;18.23;;;;;;;11.20;100.00;101847.69;5270389;28;20526;-75
2024/03/20 07:14:45;;;;;;;37.92;18.15;;;;;;;11.42;100.00;101851.84;5272262;28;20023;-74
2024/03/20 07:17:15;;;;;;;40.15;18.17;;;;;;;11.57;100.00;101850.34;5273443;28;20024;-74
2024/03/20 07:19:47;;;;;;;37.38;18.27;;;;;;;11.67;100.00;101851.16;5270872;28;20008;-76
2024/03/20 07:22:18;;;;;;;33.55;17.58;;;;;;;11.90;100.00;101861.56;5270588;28;20103;-75
2024/03/20 07:24:48;;;;;;;44.00;18.75;;;;;;;12.00;100.00;101854.28;5269428;28;20103;-74
2024/03/20 07:27:19;;;;;;;33.97;17.85;;;;;;;12.20;100.00;101846.94;5268888;28;20028;-75
2024/03/20 07:29:49;;;;;;;42.50;19.38;;;;;;;12.43;100.00;101847.31;5268923;28;20461;-74
2024/03/20 07:32:20;;;;;;;34.33;18.30;;;;;;;12.60;100.00;101856.34;5266060;28;20024;-75
2024/03/20 07:34:51;;;;;;;33.17;17.52;;;;;;;12.89;100.00;101856.09;5268349;28;20016;-75
2024/03/20 07:37:21;;;;;;;37.40;19.52;;;;;;;13.03;100.00;101860.91;5267040;28;20381;-74
2024/03/20 07:39:52;;;;;;;36.05;18.10;;;;;;;13.14;100.00;101862.50;5268643;28;20031;-75
2024/03/20 07:42:22;;;;;;;36.83;18.67;;;;;;;13.25;100.00;101862.25;5266583;28;20024;-75
2024/03/20 07:44:56;;;;;;;41.00;19.02;;;;;;;13.39;100.00;101864.38;5269159;28;20027;-75
2024/03/20 07:47:26;;;;;;;33.97;17.50;;;;;;;13.49;100.00;101861.56;5268158;28;20030;-75
2024/03/20 07:49:57;;;;;;;33.58;17.75;;;;;;;13.65;100.00;101868.88;5270440;28;20036;-75
2024/03/20 07:52:27;;;;;;;34.80;17.75;;;;;;;13.70;100.00;101867.41;5271656;28;20030;-75
2024/03/20 07:54:59;;;;;;;35.88;18.67;;;;;;;13.80;100.00;101861.03;5272951;28;20113;-75
2024/03/20 07:57:30;;;;;;;39.17;19.45;;;;;;;14.06;100.00;101872.59;5270521;28;20031;-75
2024/03/20 08:00:00;;;;;;;38.80;18.95;;;;;;;14.21;100.00;101865.56;5271129;28;20519;-75
2024/03/20 08:02:31;;;;;;;32.92;19.13;;;;;;;14.37;100.00;101863.91;5268814;28;20034;-75
2024/03/20 08:05:01;;;;;;;31.52;19.02;;;;;;;14.46;100.00;101866.44;5267733;28;20035;-75
2024/03/20 08:07:32;;;;;;;37.55;18.25;;;;;;;14.63;100.00;101880.81;5267890;28;20541;-75
2024/03/20 08:10:03;;;;;;;35.47;18.50;;;;;;;14.71;100.00;101872.75;5274136;28;20028;-75
2024/03/20 08:12:33;;;;;;;38.45;19.88;;;;;;;14.86;100.00;101875.59;5272315;28;20460;-76
2024/03/20 08:15:05;;;;;;;33.00;18.10;;;;;;;14.92;100.00;101880.31;5272063;28;20038;-75
2024/03/20 08:17:36;;;;;;;39.08;19.33;;;;;;;15.13;100.00;101885.19;5268236;28;20426;-75
2024/03/20 08:20:12;;;;;;;32.97;17.08;;;;;;;15.43;100.00;101890.91;5269313;28;20121;-75
2024/03/20 08:22:42;;;;;;;32.78;18.58;;;;;;;15.69;100.00;101894.22;5266095;28;20526;-76
2024/03/20 08:25:13;;;;;;;30.20;17.23;;;;;;;15.86;100.00;101892.28;5272837;28;20031;-74
2024/03/20 08:27:43;;;;;;;31.17;17.10;;;;;;;16.01;100.00;101890.56;5270052;28;20028;-74
2024/03/20 08:30:14;;;;;;;25.63;17.20;;;;;;;16.11;100.00;101884.91;5271993;28;20027;-75
2024/03/20 08:32:45;;;;;;;29.25;16.05;;;;;;;16.14;100.00;101889.97;5267987;28;20393;-74
2024/03/20 08:35:17;;;;;;;35.28;18.25;;;;;;;16.18;100.00;101885.88;5270107;28;20470;-75
2024/03/20 08:37:47;;;;;;;26.80;16.00;;;;;;;16.28;100.00;101886.50;5271431;28;20031;-74
2024/03/20 08:40:18;;;;;;;31.92;16.73;;;;;;;16.34;100.00;101889.53;5267436;28;20028;-74
2024/03/20 08:42:48;;;;;;;30.25;16.50;;;;;;;16.47;100.00;101882.50;5271793;28;20558;-75
2024/03/20 08:45:19;;;;;;;33.38;17.55;;;;;;;16.63;100.00;101884.25;5269665;28;20032;-75
2024/03/20 08:47:51;;;;;;;31.95;15.57;;;;;;;16.88;100.00;101886.78;5273541;28;20073;-74
2024/03/20 08:50:21;;;;;;;32.40;15.27;;;;;;;17.16;100.00;101893.28;5266531;28;20024;-74
2024/03/20 08:52:51;;;;;;;28.55;15.43;;;;;;;17.27;100.00;101894.69;5269724;28;20032;-75
2024/03/20 08:55:22;;;;;;;33.05;15.18;;;;;;;17.51;100.00;101885.47;5267681;28;20476;-75
2024/03/20 08:57:53;;;;;;;25.73;14.27;;;;;;;17.93;100.00;101892.13;5268647;28;20752;-75
2024/03/20 09:00:23;;;;;;;27.90;13.75;;;;;;;18.11;100.00;101881.69;5269441;28;20024;-75
2024/03/20 09:02:54;;;;;;;30.73;14.73;;;;;;;18.00;100.00;101880.31;5269371;28;20039;-74
2024/03/20 09:05:24;;;;;;;31.17;15.02;;;;;;;18.04;100.00;101878.91;5268453;28;20036;-74
2024/03/20 09:07:55;;;;;;;32.55;15.23;;;;;;;18.26;100.00;101882.50;5271016;28;20024;-74
2024/03/20 09:10:26;;;;;;;28.90;13.75;;;;;;;18.48;100.00;101886.09;5269284;27;20047;-74
2024/03/20 09:12:56;;;;;;;26.17;14.43;;;;;;;18.62;100.00;101881.63;5271910;28;20024;-74
2024/03/20 09:15:27;;;;;;;25.88;13.98;;;;;;;18.81;100.00;101877.44;5271238;28;20020;-75
2024/03/20 09:17:57;;;;;;;25.90;13.65;;;;;;;18.86;100.00;101880.41;5273655;28;20077;-74
2024/03/20 09:20:30;;;;;;;25.55;13.35;;;;;;;18.77;100.00;101873.44;5267530;28;20032;-74
2024/03/20 09:23:04;;;;;;;21.80;13.70;;;;;;;18.73;100.00;101873.00;5275535;28;20420;-74
2024/03/20 09:25:35;;;;;;;24.25;13.25;;;;;;;18.85;100.00;101870.56;5270200;28;20478;-74
2024/03/20 09:28:05;;;;;;;22.85;13.70;;;;;;;19.06;100.00;101878.69;5271178;28;20027;-74
2024/03/20 09:30:37;;;;;;;23.13;12.73;;;;;;;19.13;100.00;101882.31;5268319;28;20020;-74
2024/03/20 09:33:07;;;;;;;25.10;13.60;;;;;;;19.25;100.00;101879.88;5269773;28;20036;-74
2024/03/20 09:35:39;;;;;;;29.42;12.60;;;;;;;19.16;100.00;101881.06;5274878;28;20016;-74
2024/03/20 09:38:09;;;;;;;20.67;11.82;;;;;;;19.15;100.00;101882.94;5272757;28;20058;-74
2024/03/20 09:40:40;;;;;;;16.90;11.30;;;;;;;19.27;100.00;101883.25;5266598;28;20023;-74
2024/03/20 09:43:13;;;;;;;23.75;11.93;;;;;;;19.49;100.00;101872.31;5268602;28;20474;-75
2024/03/20 09:45:43;;;;;;;21.23;11.23;;;;;;;19.62;100.00;101881.41;5272357;28;20024;-74
2024/03/20 09:48:15;;;;;;;16.50;11.07;;;;;;;19.90;100.00;101880.50;5265960;27;20050;-74
2024/03/20 09:50:46;;;;;;;21.42;10.43;;;;;;;20.10;100.00;101881.41;5265179;28;20478;-74
2024/03/20 09:53:16;;;;;;;21.23;11.18;;;;;;;20.07;100.00;101884.53;5268945;28;20057;-74
2024/03/20 09:55:47;;;;;;;20.08;11.50;;;;;;;19.88;100.00;101872.53;5270649;28;20024;-74
2024/03/20 09:58:18;;;;;;;20.95;10.57;;;;;;;19.72;100.00;101872.88;5266274;28;20481;-74
2024/03/20 10:00:48;;;;;;;19.10;12.10;;;;;;;19.68;100.00;101874.34;5269243;28;20645;-74
2024/03/20 10:03:19;;;;;;;23.67;11.93;;;;;;;19.60;100.00;101869.03;5267352;28;20076;-74
2024/03/20 10:05:50;;;;;;;23.58;11.15;;;;;;;19.73;100.00;101876.41;5271093;28;20057;-74
2024/03/20 10:08:21;;;;;;;16.92;10.07;;;;;;;19.88;100.00;101871.69;5271022;28;20023;-74
2024/03/20 10:10:54;;;;;;;18.52;11.40;;;;;;;19.95;100.00;101866.28;5268846;28;20036;-74
2024/03/20 10:13:24;;;;;;;18.30;11.25;;;;;;;19.73;100.00;101865.53;5267028;28;20020;-74
2024/03/20 10:16:05;;;;;;;19.60;11.10;;;;;;;19.76;100.00;101860.53;5271728;28;20028;-74
2024/03/20 10:18:36;;;;;;;21.23;11.15;;;;;;;19.87;100.00;101859.94;5272655;28;20036;-74
2024/03/20 10:21:07;;;;;;;17.45;11.05;;;;;;;19.95;100.00;101858.94;5271246;28;20121;-74
2024/03/20 10:23:45;;;;;;;20.77;11.05;;;;;;;20.20;100.00;101852.94;5263889;28;20102;-74
2024/03/20 10:26:16;;;;;;;20.45;10.75;;;;;;;20.08;100.00;101844.50;5269606;28;20063;-74
2024/03/20 10:28:50;;;;;;;17.90;10.18;;;;;;;19.97;100.00;101847.84;5267909;28;20079;-74
2024/03/20 10:31:21;;;;;;;23.02;10.93;;;;;;;20.09;100.00;101844.34;5266473;28;20028;-74
2024/03/20 10:33:54;;;;;;;21.00;10.02;;;;;;;19.99;100.00;101843.03;5269478;28;20032;-74
2024/03/20 10:36:25;;;;;;;17.20;10.10;;;;;;;20.08;100.00;101849.97;5262987;28;20465;-74
2024/03/20 10:38:57;;;;;;;17.90;9.70;;;;;;;20.18;100.00;101844.97;5269738;28;20028;-74
2024/03/20 10:41:28;;;;;;;18.60;9.70;;;;;;;20.10;100.00;101850.63;5268898;28;20028;-74
2024/03/20 10:43:59;;;;;;;17.60;9.68;;;;;;;20.05;100.00;101844.94;5271255;28;20145;-75
2024/03/20 10:46:31;;;;;;;19.75;11.15;;;;;;;20.17;100.00;101846.84;5264983;28;20023;-75
2024/03/20 10:49:02;;;;;;;22.40;10.52;;;;;;;20.41;100.00;101850.88;5268404;28;20080;-74
2024/03/20 10:51:33;;;;;;;20.10;9.63;;;;;;;20.59;100.00;101844.03;5268692;28;20447;-74
2024/03/20 10:54:05;;;;;;;16.75;9.13;;;;;;;20.73;100.00;101859.34;5280615;28;20027;-74
2024/03/20 10:56:43;;;;;;;23.38;10.20;;;;;;;20.88;100.00;101859.13;5268167;28;20046;-74
2024/03/20 10:59:16;;;;;;;17.83;9.18;;;;;;;21.04;100.00;101860.63;5263417;28;20102;-74
2024/03/20 11:02:06;;;;;;;16.38;8.65;;;;;;;21.10;100.00;101852.44;5266725;28;20024;-74
2024/03/20 11:04:41;;;;;;;14.27;7.55;;;;;;;21.14;100.00;101855.56;5265086;28;20473;-74
2024/03/20 11:07:21;;;;;;;15.10;8.77;;;;;;;20.82;100.00;101855.38;5262796;28;20024;-75
2024/03/20 11:09:52;;;;;;;13.90;8.30;;;;;;;20.91;100.00;101856.84;5276190;28;20031;-74
2024/03/20 11:12:31;;;;;;;13.80;8.52;;;;;;;21.18;100.00;101849.44;5274607;28;20030;-74
2024/03/20 11:15:04;;;;;;;15.88;9.32;;;;;;;21.36;100.00;101858.91;5270157;28;20059;-75
2024/03/20 11:17:36;;;;;;;17.73;9.38;;;;;;;21.48;100.00;101849.00;5268845;28;20016;-75
2024/03/20 11:20:28;;;;;;;17.02;8.35;;;;;;;21.61;100.00;101856.34;5276891;28;20102;-74
2024/03/20 11:23:06;;;;;;;15.52;7.60;;;;;;;21.64;100.00;101850.44;5272322;28;20397;-74
2024/03/20 11:25:37;;;;;;;15.75;8.13;;;;;;;21.70;100.00;101850.41;5263901;28;20059;-74